Elliottsburg, Pennsylvania
Current Conditions -  °F | °C
As of 2:56 PM on Thursday 23 Oct 2014 (Local Time) from KCXY Reporting Station
Broken Clouds Broken Clouds  
Wind Chill: 62°   Ceiling: 4200
Heat Index: 62°   Visibility: 10mi
Dew Point: 44°   Wind: 20mph
Humidity: 52%   Direction: 340°NNW
Pressure: 29.84"   Gusts: 26mph
Location:  40.39°N, 77.29°W
Report Text: KCXY 231856Z 34017G23KT 10SM BKN042 BKN100 17/07 A2984 RMK AO2 SLP106 T01670067
Loading
Personal Weather Stations






























Interactive Weather Map
Tropical Storm Tracking
New forecast layout! Learn more

10-Day Weather Forecast

Advertisements
Track Severe Weather on mobile